sensor_id;sensor_type;location;lat;lon;timestamp;pressure;altitude;pressure_sealevel;temperature;humidity
69855;BME280;57146;48.140;16.304;2022-08-21T00:00:18;99063.91;;;16.92;83.77
69855;BME280;57146;48.140;16.304;2022-08-21T00:03:15;99058.19;;;16.90;83.90
69855;BME280;57146;48.140;16.304;2022-08-21T00:05:45;99052.50;;;16.91;83.82
69855;BME280;57146;48.140;16.304;2022-08-21T00:08:13;99052.50;;;16.91;83.32
69855;BME280;57146;48.140;16.304;2022-08-21T00:10:41;99047.28;;;16.95;82.99
69855;BME280;57146;48.140;16.304;2022-08-21T00:13:10;99044.25;;;16.96;82.72
69855;BME280;57146;48.140;16.304;2022-08-21T00:15:39;99038.94;;;16.96;82.57
69855;BME280;57146;48.140;16.304;2022-08-21T00:18:10;99034.81;;;16.99;82.84
69855;BME280;57146;48.140;16.304;2022-08-21T00:20:39;99027.97;;;16.98;82.68
69855;BME280;57146;48.140;16.304;2022-08-21T00:23:08;99037.47;;;16.99;82.22
69855;BME280;57146;48.140;16.304;2022-08-21T00:25:35;99022.28;;;16.99;82.62
69855;BME280;57146;48.140;16.304;2022-08-21T00:28:03;99012.09;;;17.02;82.33
69855;BME280;57146;48.140;16.304;2022-08-21T00:30:30;99012.84;;;17.02;82.14
69855;BME280;57146;48.140;16.304;2022-08-21T00:32:58;99003.34;;;17.01;82.38
69855;BME280;57146;48.140;16.304;2022-08-21T00:35:29;99002.59;;;17.01;82.23
69855;BME280;57146;48.140;16.304;2022-08-21T00:37:57;98998.03;;;17.01;82.15
69855;BME280;57146;48.140;16.304;2022-08-21T00:40:29;99004.88;;;17.02;82.28
69855;BME280;57146;48.140;16.304;2022-08-21T00:42:57;98998.09;;;17.05;81.78
69855;BME280;57146;48.140;16.304;2022-08-21T00:45:24;99002.28;;;17.06;82.06
69855;BME280;57146;48.140;16.304;2022-08-21T00:47:52;99001.53;;;17.05;82.26
69855;BME280;57146;48.140;16.304;2022-08-21T00:50:19;99003.50;;;17.08;82.25
69855;BME280;57146;48.140;16.304;2022-08-21T00:52:49;99006.56;;;17.10;81.92
69855;BME280;57146;48.140;16.304;2022-08-21T00:55:16;99003.56;;;17.12;81.60
69855;BME280;57146;48.140;16.304;2022-08-21T00:57:47;99010.41;;;17.13;82.01
69855;BME280;57146;48.140;16.304;2022-08-21T01:00:21;99001.31;;;17.14;81.89
69855;BME280;57146;48.140;16.304;2022-08-21T01:02:48;99007.81;;;17.16;81.26
69855;BME280;57146;48.140;16.304;2022-08-21T01:05:15;99011.25;;;17.17;81.71
69855;BME280;57146;48.140;16.304;2022-08-21T01:07:43;99006.38;;;17.19;81.29
69855;BME280;57146;48.140;16.304;2022-08-21T01:10:10;99012.84;;;17.21;81.48
69855;BME280;57146;48.140;16.304;2022-08-21T01:12:52;99024.69;;;17.24;81.43
69855;BME280;57146;48.140;16.304;2022-08-21T01:15:25;99014.06;;;17.24;81.43
69855;BME280;57146;48.140;16.304;2022-08-21T01:17:54;99012.22;;;17.28;81.41
69855;BME280;57146;48.140;16.304;2022-08-21T01:20:21;99011.47;;;17.28;81.36
69855;BME280;57146;48.140;16.304;2022-08-21T01:23:00;99010.34;;;17.29;81.35
69855;BME280;57146;48.140;16.304;2022-08-21T01:25:27;99012.31;;;17.32;81.03
69855;BME280;57146;48.140;16.304;2022-08-21T01:27:54;99008.09;;;17.31;81.18
69855;BME280;57146;48.140;16.304;2022-08-21T01:30:26;99012.31;;;17.32;80.92
69855;BME280;57146;48.140;16.304;2022-08-21T01:32:54;99004.75;;;17.34;80.79
69855;BME280;57146;48.140;16.304;2022-08-21T01:35:22;99008.94;;;17.35;81.11
69855;BME280;57146;48.140;16.304;2022-08-21T01:37:49;99015.41;;;17.34;81.16
69855;BME280;57146;48.140;16.304;2022-08-21T01:40:17;99016.59;;;17.36;81.11
69855;BME280;57146;48.140;16.304;2022-08-21T01:42:44;99025.66;;;17.35;81.06
69855;BME280;57146;48.140;16.304;2022-08-21T01:45:14;99011.97;;;17.33;81.49
69855;BME280;57146;48.140;16.304;2022-08-21T01:47:43;99012.31;;;17.32;81.56
69855;BME280;57146;48.140;16.304;2022-08-21T01:50:12;99009.63;;;17.32;81.73
69855;BME280;57146;48.140;16.304;2022-08-21T01:52:40;99013.00;;;17.29;82.16
69855;BME280;57146;48.140;16.304;2022-08-21T01:55:09;99008.19;;;17.15;83.53
69855;BME280;57146;48.140;16.304;2022-08-21T01:57:37;99010.41;;;17.13;83.62
69855;BME280;57146;48.140;16.304;2022-08-21T02:00:07;99020.63;;;17.11;84.14
69855;BME280;57146;48.140;16.304;2022-08-21T02:02:40;99013.00;;;17.09;84.21
69855;BME280;57146;48.140;16.304;2022-08-21T02:05:09;99009.56;;;17.09;84.01
69855;BME280;57146;48.140;16.304;2022-08-21T02:07:41;99004.59;;;17.07;84.08
69855;BME280;57146;48.140;16.304;2022-08-21T02:10:11;99000.41;;;17.06;84.66
69855;BME280;57146;48.140;16.304;2022-08-21T02:12:38;99008.03;;;17.08;84.18
69855;BME280;57146;48.140;16.304;2022-08-21T02:15:07;99000.41;;;17.06;84.59
69855;BME280;57146;48.140;16.304;2022-08-21T02:17:44;99001.94;;;17.07;84.30
69855;BME280;57146;48.140;16.304;2022-08-21T02:20:25;98991.22;;;17.04;84.80
69855;BME280;57146;48.140;16.304;2022-08-21T02:22:52;98993.88;;;17.04;84.55
69855;BME280;57146;48.140;16.304;2022-08-21T02:25:22;98991.66;;;17.06;85.32
69855;BME280;57146;48.140;16.304;2022-08-21T02:27:50;98989.69;;;17.03;86.26
69855;BME280;57146;48.140;16.304;2022-08-21T02:30:25;98986.56;;;16.97;87.17
69855;BME280;57146;48.140;16.304;2022-08-21T02:32:53;98978.84;;;16.92;87.44
69855;BME280;57146;48.140;16.304;2022-08-21T02:35:21;98978.00;;;16.88;86.95
69855;BME280;57146;48.140;16.304;2022-08-21T02:37:51;98968.13;;;16.88;87.17
69855;BME280;57146;48.140;16.304;2022-08-21T02:40:23;98975.34;;;16.88;87.38
69855;BME280;57146;48.140;16.304;2022-08-21T02:42:52;98983.25;;;16.84;87.62
69855;BME280;57146;48.140;16.304;2022-08-21T02:45:19;98974.75;;;16.79;87.99
69855;BME280;57146;48.140;16.304;2022-08-21T02:47:52;98972.09;;;16.79;87.99
69855;BME280;57146;48.140;16.304;2022-08-21T02:50:23;98977.41;;;16.79;87.59
69855;BME280;57146;48.140;16.304;2022-08-21T02:52:53;98978.22;;;16.79;87.42
69855;BME280;57146;48.140;16.304;2022-08-21T02:55:23;98969.09;;;16.80;87.11
69855;BME280;57146;48.140;16.304;2022-08-21T02:57:50;98978.22;;;16.79;87.73
69855;BME280;57146;48.140;16.304;2022-08-21T03:00:18;98966.00;;;16.78;88.14
69855;BME280;57146;48.140;16.304;2022-08-21T03:02:45;98968.59;;;16.74;88.43
69855;BME280;57146;48.140;16.304;2022-08-21T03:05:13;98982.97;;;16.73;88.16
69855;BME280;57146;48.140;16.304;2022-08-21T03:07:41;98971.06;;;16.67;89.26
69855;BME280;57146;48.140;16.304;2022-08-21T03:10:09;98972.28;;;16.70;89.01
69855;BME280;57146;48.140;16.304;2022-08-21T03:12:39;98976.13;;;16.72;87.84
69855;BME280;57146;48.140;16.304;2022-08-21T03:15:09;98981.97;;;16.78;87.22
69855;BME280;57146;48.140;16.304;2022-08-21T03:17:37;98986.59;;;16.81;87.12
69855;BME280;57146;48.140;16.304;2022-08-21T03:20:06;98987.03;;;16.83;86.91
69855;BME280;57146;48.140;16.304;2022-08-21T03:22:34;98996.53;;;16.84;86.62
69855;BME280;57146;48.140;16.304;2022-08-21T03:25:02;98994.63;;;16.85;87.15
69855;BME280;57146;48.140;16.304;2022-08-21T03:27:32;98995.31;;;16.82;87.64
69855;BME280;57146;48.140;16.304;2022-08-21T03:30:00;99001.69;;;16.77;87.90
69855;BME280;57146;48.140;16.304;2022-08-21T03:32:27;99004.25;;;16.73;88.58
69855;BME280;57146;48.140;16.304;2022-08-21T03:34:54;98999.91;;;16.65;88.85
69855;BME280;57146;48.140;16.304;2022-08-21T03:37:21;99002.88;;;16.64;89.25
69855;BME280;57146;48.140;16.304;2022-08-21T03:39:48;99001.06;;;16.68;88.89
69855;BME280;57146;48.140;16.304;2022-08-21T03:42:15;99004.50;;;16.68;88.77
69855;BME280;57146;48.140;16.304;2022-08-21T03:44:42;98997.72;;;16.71;89.10
69855;BME280;57146;48.140;16.304;2022-08-21T03:47:09;98997.72;;;16.71;88.13
69855;BME280;57146;48.140;16.304;2022-08-21T03:49:36;98998.59;;;16.75;88.63
69855;BME280;57146;48.140;16.304;2022-08-21T03:52:04;99006.91;;;16.73;87.43
69855;BME280;57146;48.140;16.304;2022-08-21T03:54:31;99005.03;;;16.74;87.98
69855;BME280;57146;48.140;16.304;2022-08-21T03:56:58;99004.72;;;16.75;87.51
69855;BME280;57146;48.140;16.304;2022-08-21T03:59:25;99006.31;;;16.80;87.14
69855;BME280;57146;48.140;16.304;2022-08-21T04:01:57;99015.91;;;16.85;86.66
69855;BME280;57146;48.140;16.304;2022-08-21T04:04:27;99014.44;;;16.87;87.22
69855;BME280;57146;48.140;16.304;2022-08-21T04:06:55;99014.00;;;16.85;87.45
69855;BME280;57146;48.140;16.304;2022-08-21T04:09:23;99024.25;;;16.83;87.50
69855;BME280;57146;48.140;16.304;2022-08-21T04:11:50;99019.59;;;16.80;87.12
69855;BME280;57146;48.140;16.304;2022-08-21T04:14:17;99024.94;;;16.80;87.22
69855;BME280;57146;48.140;16.304;2022-08-21T04:16:44;99023.41;;;16.79;86.93
69855;BME280;57146;48.140;16.304;2022-08-21T04:19:12;99018.78;;;16.76;86.83
69855;BME280;57146;48.140;16.304;2022-08-21T04:21:40;99030.16;;;16.77;87.69
69855;BME280;57146;48.140;16.304;2022-08-21T04:24:10;99042.78;;;16.80;87.54
69855;BME280;57146;48.140;16.304;2022-08-21T04:26:38;99035.88;;;16.79;86.65
69855;BME280;57146;48.140;16.304;2022-08-21T04:29:05;99040.09;;;16.80;86.83
69855;BME280;57146;48.140;16.304;2022-08-21T04:31:35;99041.66;;;16.81;87.02
69855;BME280;57146;48.140;16.304;2022-08-21T04:34:05;99037.00;;;16.78;87.15
69855;BME280;57146;48.140;16.304;2022-08-21T04:36:32;99043.53;;;16.80;87.04
69855;BME280;57146;48.140;16.304;2022-08-21T04:39:00;99048.09;;;16.80;86.66
69855;BME280;57146;48.140;16.304;2022-08-21T04:41:29;99049.97;;;16.79;86.48
69855;BME280;57146;48.140;16.304;2022-08-21T04:43:56;99056.06;;;16.80;86.19
69855;BME280;57146;48.140;16.304;2022-08-21T04:46:23;99046.97;;;16.81;86.27
69855;BME280;57146;48.140;16.304;2022-08-21T04:48:50;99051.59;;;16.84;85.97
69855;BME280;57146;48.140;16.304;2022-08-21T04:51:32;99051.22;;;16.85;85.84
69855;BME280;57146;48.140;16.304;2022-08-21T04:54:14;99050.22;;;16.90;84.92
69855;BME280;57146;48.140;16.304;2022-08-21T04:56:54;99055.59;;;16.93;85.04
69855;BME280;57146;48.140;16.304;2022-08-21T04:59:24;99052.22;;;16.96;85.03
69855;BME280;57146;48.140;16.304;2022-08-21T05:01:54;99058.75;;;16.99;85.09
69855;BME280;57146;48.140;16.304;2022-08-21T05:04:24;99055.75;;;17.01;84.61
69855;BME280;57146;48.140;16.304;2022-08-21T05:06:54;99060.34;;;17.04;84.33
69855;BME280;57146;48.140;16.304;2022-08-21T05:09:23;99054.34;;;17.07;84.18
69855;BME280;57146;48.140;16.304;2022-08-21T05:11:51;99060.09;;;17.09;84.25
69855;BME280;57146;48.140;16.304;2022-08-21T05:14:18;99060.88;;;17.09;83.85
69855;BME280;57146;48.140;16.304;2022-08-21T05:16:46;99053.66;;;17.10;83.71
69855;BME280;57146;48.140;16.304;2022-08-21T05:19:13;99062.84;;;17.12;84.25
69855;BME280;57146;48.140;16.304;2022-08-21T05:21:42;99056.81;;;17.15;83.68
69855;BME280;57146;48.140;16.304;2022-08-21T05:24:11;99062.22;;;17.19;83.01
69855;BME280;57146;48.140;16.304;2022-08-21T05:26:38;99051.72;;;17.26;82.90
69855;BME280;57146;48.140;16.304;2022-08-21T05:29:16;99058.66;;;17.31;82.78
69855;BME280;57146;48.140;16.304;2022-08-21T05:31:45;99051.50;;;17.35;83.08
69855;BME280;57146;48.140;16.304;2022-08-21T05:34:19;99055.00;;;17.39;82.46
69855;BME280;57146;48.140;16.304;2022-08-21T05:36:46;99053.84;;;17.36;82.75
69855;BME280;57146;48.140;16.304;2022-08-21T05:39:14;99062.16;;;17.35;82.99
69855;BME280;57146;48.140;16.304;2022-08-21T05:41:41;99062.91;;;17.35;83.04
69855;BME280;57146;48.140;16.304;2022-08-21T05:44:08;99064.88;;;17.38;82.79
69855;BME280;57146;48.140;16.304;2022-08-21T05:46:36;99066.78;;;17.38;82.70
69855;BME280;57146;48.140;16.304;2022-08-21T05:49:03;99067.53;;;17.38;82.46
69855;BME280;57146;48.140;16.304;2022-08-21T05:51:30;99059.94;;;17.37;82.92
69855;BME280;57146;48.140;16.304;2022-08-21T05:53:57;99057.75;;;17.42;82.78
69855;BME280;57146;48.140;16.304;2022-08-21T05:56:24;99059.69;;;17.45;82.37
69855;BME280;57146;48.140;16.304;2022-08-21T05:58:51;99057.81;;;17.46;82.29
69855;BME280;57146;48.140;16.304;2022-08-21T06:01:18;99059.78;;;17.49;82.32
69855;BME280;57146;48.140;16.304;2022-08-21T06:03:45;99065.16;;;17.53;82.02
69855;BME280;57146;48.140;16.304;2022-08-21T06:06:12;99063.19;;;17.50;81.91
69855;BME280;57146;48.140;16.304;2022-08-21T06:08:38;99064.84;;;17.54;82.05
69855;BME280;57146;48.140;16.304;2022-08-21T06:11:08;99070.56;;;17.56;82.03
69855;BME280;57146;48.140;16.304;2022-08-21T06:13:35;99067.56;;;17.58;81.58
69855;BME280;57146;48.140;16.304;2022-08-21T06:16:09;99066.06;;;17.60;81.58
69855;BME280;57146;48.140;16.304;2022-08-21T06:18:37;99057.53;;;17.70;81.58
69855;BME280;57146;48.140;16.304;2022-08-21T06:21:04;99059.06;;;17.71;81.33
69855;BME280;57146;48.140;16.304;2022-08-21T06:23:32;99061.91;;;17.79;81.07
69855;BME280;57146;48.140;16.304;2022-08-21T06:26:01;99056.22;;;17.80;80.54
69855;BME280;57146;48.140;16.304;2022-08-21T06:28:28;99057.34;;;17.79;80.87
69855;BME280;57146;48.140;16.304;2022-08-21T06:30:55;99064.56;;;17.79;80.18
69855;BME280;57146;48.140;16.304;2022-08-21T06:33:22;99067.28;;;17.82;80.33
69855;BME280;57146;48.140;16.304;2022-08-21T06:35:49;99074.16;;;17.83;80.23
69855;BME280;57146;48.140;16.304;2022-08-21T06:38:16;99070.34;;;17.84;79.96
69855;BME280;57146;48.140;16.304;2022-08-21T06:40:43;99079.88;;;17.85;80.11
69855;BME280;57146;48.140;16.304;2022-08-21T06:43:16;99074.97;;;17.87;80.06
69855;BME280;57146;48.140;16.304;2022-08-21T06:45:43;99078.84;;;17.90;79.88
69855;BME280;57146;48.140;16.304;2022-08-21T06:48:11;99077.00;;;17.94;79.88
69855;BME280;57146;48.140;16.304;2022-08-21T06:50:44;99082.34;;;17.94;79.51
69855;BME280;57146;48.140;16.304;2022-08-21T06:53:13;99075.94;;;17.99;79.37
69855;BME280;57146;48.140;16.304;2022-08-21T06:55:40;99082.81;;;18.00;79.08
69855;BME280;57146;48.140;16.304;2022-08-21T06:58:08;99070.56;;;17.95;79.23
69855;BME280;57146;48.140;16.304;2022-08-21T07:00:39;99070.63;;;17.99;78.79
69855;BME280;57146;48.140;16.304;2022-08-21T07:03:07;99074.19;;;18.06;78.43
69855;BME280;57146;48.140;16.304;2022-08-21T07:05:34;99081.81;;;18.08;78.30
69855;BME280;57146;48.140;16.304;2022-08-21T07:08:01;99072.63;;;18.05;78.34
69855;BME280;57146;48.140;16.304;2022-08-21T07:10:28;99068.78;;;18.03;78.26
69855;BME280;57146;48.140;16.304;2022-08-21T07:12:54;99073.34;;;18.02;78.74
69855;BME280;57146;48.140;16.304;2022-08-21T07:15:29;99084.44;;;18.04;78.45
69855;BME280;57146;48.140;16.304;2022-08-21T07:17:58;99076.44;;;18.04;78.45
69855;BME280;57146;48.140;16.304;2022-08-21T07:20:26;99083.66;;;18.04;78.92
69855;BME280;57146;48.140;16.304;2022-08-21T07:22:53;99090.53;;;18.05;78.86
69855;BME280;57146;48.140;16.304;2022-08-21T07:25:21;99097.31;;;18.02;79.20
69855;BME280;57146;48.140;16.304;2022-08-21T07:27:48;99090.38;;;17.98;79.12
69855;BME280;57146;48.140;16.304;2022-08-21T07:30:15;99091.84;;;17.95;79.45
69855;BME280;57146;48.140;16.304;2022-08-21T07:32:42;99093.44;;;18.00;79.18
69855;BME280;57146;48.140;16.304;2022-08-21T07:35:08;99099.22;;;18.02;79.10
69855;BME280;57146;48.140;16.304;2022-08-21T07:37:35;99103.00;;;18.01;79.04
69855;BME280;57146;48.140;16.304;2022-08-21T07:40:03;99095.06;;;18.04;78.96
69855;BME280;57146;48.140;16.304;2022-08-21T07:42:30;99084.06;;;18.06;79.30
69855;BME280;57146;48.140;16.304;2022-08-21T07:44:57;99087.38;;;17.99;79.69
69855;BME280;57146;48.140;16.304;2022-08-21T07:47:24;99092.69;;;17.99;79.99
69855;BME280;57146;48.140;16.304;2022-08-21T07:50:08;99085.00;;;17.94;80.52
69855;BME280;57146;48.140;16.304;2022-08-21T07:52:35;99092.16;;;17.90;81.68
69855;BME280;57146;48.140;16.304;2022-08-21T07:55:02;99085.69;;;17.91;82.02
69855;BME280;57146;48.140;16.304;2022-08-21T07:57:32;99093.75;;;17.94;83.40
69855;BME280;57146;48.140;16.304;2022-08-21T07:59:59;99088.28;;;17.87;83.01
69855;BME280;57146;48.140;16.304;2022-08-21T08:02:28;99077.66;;;17.87;81.85
69855;BME280;57146;48.140;16.304;2022-08-21T08:05:03;99079.25;;;17.92;81.38
69855;BME280;57146;48.140;16.304;2022-08-21T08:07:31;99072.88;;;17.97;80.81
69855;BME280;57146;48.140;16.304;2022-08-21T08:09:58;99072.16;;;18.00;80.88
69855;BME280;57146;48.140;16.304;2022-08-21T08:12:25;99071.94;;;18.08;80.72
69855;BME280;57146;48.140;16.304;2022-08-21T08:14:52;99075.84;;;18.14;81.34
69855;BME280;57146;48.140;16.304;2022-08-21T08:17:19;99071.75;;;18.21;81.15
69855;BME280;57146;48.140;16.304;2022-08-21T08:19:46;99069.56;;;18.26;80.67
69855;BME280;57146;48.140;16.304;2022-08-21T08:22:14;99062.03;;;18.32;80.16
69855;BME280;57146;48.140;16.304;2022-08-21T08:24:41;99056.44;;;18.37;79.56
69855;BME280;57146;48.140;16.304;2022-08-21T08:27:08;99057.63;;;18.39;80.14
69855;BME280;57146;48.140;16.304;2022-08-21T08:29:35;99052.34;;;18.43;79.70
69855;BME280;57146;48.140;16.304;2022-08-21T08:32:03;99064.59;;;18.48;78.42
69855;BME280;57146;48.140;16.304;2022-08-21T08:34:30;99061.66;;;18.56;78.39
69855;BME280;57146;48.140;16.304;2022-08-21T08:36:57;99058.28;;;18.59;77.79
69855;BME280;57146;48.140;16.304;2022-08-21T08:39:24;99061.81;;;18.67;78.11
69855;BME280;57146;48.140;16.304;2022-08-21T08:42:17;99058.13;;;18.72;77.70
69855;BME280;57146;48.140;16.304;2022-08-21T08:45:05;99060.34;;;18.70;77.83
69855;BME280;57146;48.140;16.304;2022-08-21T08:47:35;99066.59;;;18.77;77.39
69855;BME280;57146;48.140;16.304;2022-08-21T08:52:40;99061.56;;;18.72;78.04
69855;BME280;57146;48.140;16.304;2022-08-21T08:55:12;99053.56;;;18.49;79.06
69855;BME280;57146;48.140;16.304;2022-08-21T08:57:44;99073.19;;;18.37;80.14
69855;BME280;57146;48.140;16.304;2022-08-21T09:00:18;99065.84;;;18.31;80.09
69855;BME280;57146;48.140;16.304;2022-08-21T09:02:45;99058.22;;;18.29;80.30
69855;BME280;57146;48.140;16.304;2022-08-21T09:11:07;99063.50;;;18.52;81.21
69855;BME280;57146;48.140;16.304;2022-08-21T09:25:20;99067.63;;;18.23;84.75
69855;BME280;57146;48.140;16.304;2022-08-21T09:27:50;99070.78;;;18.29;85.25
69855;BME280;57146;48.140;16.304;2022-08-21T09:30:20;99060.88;;;18.29;85.59
69855;BME280;57146;48.140;16.304;2022-08-21T09:32:50;99055.50;;;18.26;85.95
69855;BME280;57146;48.140;16.304;2022-08-21T09:35:20;99056.06;;;18.38;86.64
69855;BME280;57146;48.140;16.304;2022-08-21T09:37:55;99048.50;;;18.40;86.78
69855;BME280;57146;48.140;16.304;2022-08-21T09:40:31;99062.94;;;18.39;86.38
69855;BME280;57146;48.140;16.304;2022-08-21T09:43:05;99056.00;;;18.35;86.58
69855;BME280;57146;48.140;16.304;2022-08-21T09:45:34;99054.78;;;18.29;87.48
69855;BME280;57146;48.140;16.304;2022-08-21T09:48:19;99042.88;;;18.23;89.41
69855;BME280;57146;48.140;16.304;2022-08-21T09:50:48;99032.16;;;18.19;87.88
69855;BME280;57146;48.140;16.304;2022-08-21T09:56:05;99043.44;;;18.35;89.80
69855;BME280;57146;48.140;16.304;2022-08-21T09:58:45;99041.84;;;18.31;88.34
69855;BME280;57146;48.140;16.304;2022-08-21T10:01:15;99035.34;;;18.28;87.72
69855;BME280;57146;48.140;16.304;2022-08-21T10:03:43;99049.78;;;18.27;88.76
69855;BME280;57146;48.140;16.304;2022-08-21T10:06:19;99042.94;;;18.26;88.05
69855;BME280;57146;48.140;16.304;2022-08-21T10:08:47;99043.00;;;18.30;89.10
69855;BME280;57146;48.140;16.304;2022-08-21T10:11:16;99031.91;;;18.28;89.62
69855;BME280;57146;48.140;16.304;2022-08-21T10:19:18;99045.53;;;18.23;89.88
69855;BME280;57146;48.140;16.304;2022-08-21T10:22:01;99039.38;;;18.18;90.07
69855;BME280;57146;48.140;16.304;2022-08-21T10:35:52;99037.97;;;18.02;88.88
69855;BME280;57146;48.140;16.304;2022-08-21T10:41:38;99042.78;;;17.96;89.43
69855;BME280;57146;48.140;16.304;2022-08-21T10:50:51;99039.38;;;18.18;88.84
69855;BME280;57146;48.140;16.304;2022-08-21T10:53:36;99041.56;;;18.13;89.67
69855;BME280;57146;48.140;16.304;2022-08-21T11:01:48;99044.09;;;18.06;89.54
69855;BME280;57146;48.140;16.304;2022-08-21T11:04:30;99050.25;;;18.10;89.58
69855;BME280;57146;48.140;16.304;2022-08-21T11:10:37;99067.50;;;18.16;88.43
69855;BME280;57146;48.140;16.304;2022-08-21T11:13:38;99053.41;;;18.15;88.44
69855;BME280;57146;48.140;16.304;2022-08-21T11:16:26;99064.47;;;18.17;90.67
69855;BME280;57146;48.140;16.304;2022-08-21T11:19:31;99058.31;;;18.13;88.78
69855;BME280;57146;48.140;16.304;2022-08-21T11:22:26;99045.38;;;18.12;87.79
69855;BME280;57146;48.140;16.304;2022-08-21T11:25:06;99045.16;;;18.24;86.69
69855;BME280;57146;48.140;16.304;2022-08-21T11:30:05;99037.13;;;18.43;84.13
69855;BME280;57146;48.140;16.304;2022-08-21T11:33:08;99036.47;;;18.50;84.65
69855;BME280;57146;48.140;16.304;2022-08-21T11:38:33;99045.06;;;18.66;83.50
69855;BME280;57146;48.140;16.304;2022-08-21T11:41:24;99042.78;;;18.65;82.86
69855;BME280;57146;48.140;16.304;2022-08-21T11:44:43;99051.16;;;18.67;82.73
69855;BME280;57146;48.140;16.304;2022-08-21T11:46:49;99054.34;;;18.73;82.89
69855;BME280;57146;48.140;16.304;2022-08-21T11:49:46;99053.56;;;18.72;82.30
69855;BME280;57146;48.140;16.304;2022-08-21T11:52:37;99050.59;;;18.77;82.51
69855;BME280;57146;48.140;16.304;2022-08-21T11:55:16;99053.41;;;18.88;81.76
69855;BME280;57146;48.140;16.304;2022-08-21T11:57:51;99047.78;;;18.93;81.79
69855;BME280;57146;48.140;16.304;2022-08-21T12:00:34;99045.41;;;18.88;80.50
69855;BME280;57146;48.140;16.304;2022-08-21T12:03:10;99055.00;;;18.93;79.71
69855;BME280;57146;48.140;16.304;2022-08-21T12:05:53;99053.88;;;18.94;80.00
69855;BME280;57146;48.140;16.304;2022-08-21T12:08:38;99055.06;;;18.96;78.56
69855;BME280;57146;48.140;16.304;2022-08-21T12:11:23;99056.13;;;18.92;79.74
69855;BME280;57146;48.140;16.304;2022-08-21T12:14:18;99051.16;;;18.90;78.93
69855;BME280;57146;48.140;16.304;2022-08-21T12:16:45;99059.00;;;18.79;80.68
69855;BME280;57146;48.140;16.304;2022-08-21T12:22:08;99064.91;;;18.69;80.08
69855;BME280;57146;48.140;16.304;2022-08-21T12:29:47;99067.06;;;18.60;82.46
69855;BME280;57146;48.140;16.304;2022-08-21T12:34:55;99068.94;;;18.33;82.32
69855;BME280;57146;48.140;16.304;2022-08-21T12:37:50;99082.53;;;18.28;82.46
69855;BME280;57146;48.140;16.304;2022-08-21T12:40:22;99070.41;;;18.30;82.63
69855;BME280;57146;48.140;16.304;2022-08-21T12:42:53;99068.22;;;18.36;82.60
69855;BME280;57146;48.140;16.304;2022-08-21T12:45:31;99072.81;;;18.39;83.19
69855;BME280;57146;48.140;16.304;2022-08-21T12:50:46;99069.31;;;18.35;85.16
69855;BME280;57146;48.140;16.304;2022-08-21T12:53:38;99066.16;;;18.26;84.88
69855;BME280;57146;48.140;16.304;2022-08-21T12:56:13;99071.88;;;18.28;85.65
69855;BME280;57146;48.140;16.304;2022-08-21T12:58:46;99067.19;;;18.21;84.05
69855;BME280;57146;48.140;16.304;2022-08-21T13:01:24;99062.16;;;18.16;83.98
69855;BME280;57146;48.140;16.304;2022-08-21T13:03:54;99054.59;;;18.18;83.69
69855;BME280;57146;48.140;16.304;2022-08-21T13:06:36;99053.47;;;18.19;83.75
69855;BME280;57146;48.140;16.304;2022-08-21T13:09:07;99051.94;;;18.18;83.82
69855;BME280;57146;48.140;16.304;2022-08-21T13:11:35;99066.44;;;18.21;83.74
69855;BME280;57146;48.140;16.304;2022-08-21T13:14:14;99064.59;;;18.25;83.41
69855;BME280;57146;48.140;16.304;2022-08-21T13:16:45;99072.25;;;18.26;82.34
69855;BME280;57146;48.140;16.304;2022-08-21T13:19:17;99077.19;;;18.28;82.39
69855;BME280;57146;48.140;16.304;2022-08-21T13:21:50;99075.66;;;18.27;82.65
69855;BME280;57146;48.140;16.304;2022-08-21T13:24:28;99067.94;;;18.18;84.04
69855;BME280;57146;48.140;16.304;2022-08-21T13:27:20;99075.19;;;18.21;83.97
69855;BME280;57146;48.140;16.304;2022-08-21T13:29:48;99085.72;;;18.14;83.91
69855;BME280;57146;48.140;16.304;2022-08-21T13:32:24;99073.47;;;18.09;84.03
69855;BME280;57146;48.140;16.304;2022-08-21T13:34:52;99067.38;;;18.09;84.10
69855;BME280;57146;48.140;16.304;2022-08-21T13:37:21;99065.84;;;18.08;83.85
69855;BME280;57146;48.140;16.304;2022-08-21T13:39:52;99063.56;;;18.10;83.35
69855;BME280;57146;48.140;16.304;2022-08-21T13:42:19;99065.97;;;18.15;83.65
69855;BME280;57146;48.140;16.304;2022-08-21T13:44:47;99065.31;;;18.22;83.32
69855;BME280;57146;48.140;16.304;2022-08-21T13:47:16;99075.72;;;18.30;82.91
69855;BME280;57146;48.140;16.304;2022-08-21T13:49:46;99068.44;;;18.27;82.69
69855;BME280;57146;48.140;16.304;2022-08-21T13:52:16;99081.00;;;18.27;82.84
69855;BME280;57146;48.140;16.304;2022-08-21T13:54:43;99068.09;;;18.29;82.98
69855;BME280;57146;48.140;16.304;2022-08-21T13:57:26;99068.09;;;18.29;82.93
69855;BME280;57146;48.140;16.304;2022-08-21T14:00:19;99063.22;;;18.34;83.42
69855;BME280;57146;48.140;16.304;2022-08-21T14:02:49;99075.41;;;18.35;82.57
69855;BME280;57146;48.140;16.304;2022-08-21T14:05:25;99067.16;;;18.40;82.40
69855;BME280;57146;48.140;16.304;2022-08-21T14:08:34;99071.00;;;18.43;82.08
69855;BME280;57146;48.140;16.304;2022-08-21T14:10:57;99068.78;;;18.49;81.94
69855;BME280;57146;48.140;16.304;2022-08-21T14:13:28;99069.59;;;18.53;81.69
69855;BME280;57146;48.140;16.304;2022-08-21T14:16:00;99067.72;;;18.53;81.86
69855;BME280;57146;48.140;16.304;2022-08-21T14:18:28;99067.75;;;18.57;81.75
69855;BME280;57146;48.140;16.304;2022-08-21T14:21:06;99062.84;;;18.59;80.88
69855;BME280;57146;48.140;16.304;2022-08-21T14:23:34;99060.19;;;18.59;80.67
69855;BME280;57146;48.140;16.304;2022-08-21T14:26:04;99059.81;;;18.60;80.93
69855;BME280;57146;48.140;16.304;2022-08-21T14:28:40;99064.03;;;18.61;79.92